Time;durP1;ratioP1;P1;durP2;ratioP2;P2;SDS_P1;SDS_P2;PMS_P1;PMS_P2;Temp;Humidity;BMP_temperature;BMP_pressure;BME280_temperature;BME280_humidity;BME280_pressure;Samples;Min_cycle;Max_cycle;Signal;HPM_P1;HPM_P2
2020/12/11 00:00:35;;;;;;;25.77;16.13;;;4.70;73.10;;;;;;5012158;28;20033;-71
2020/12/11 00:03:01;;;;;;;25.60;15.07;;;4.60;73.30;;;;;;5018110;28;20038;-71
2020/12/11 00:05:26;;;;;;;26.70;16.73;;;4.70;73.30;;;;;;5025833;28;20435;-71
2020/12/11 00:07:52;;;;;;;26.67;15.13;;;4.60;73.30;;;;;;5024397;28;20144;-71
2020/12/11 00:10:18;;;;;;;26.13;16.27;;;4.70;73.30;;;;;;5017219;28;20073;-71
2020/12/11 00:12:48;;;;;;;23.57;15.03;;;4.70;73.20;;;;;;5028316;28;20029;-71
2020/12/11 00:15:14;;;;;;;28.53;15.67;;;4.70;73.00;;;;;;5002103;28;20026;-71
2020/12/11 00:17:40;;;;;;;28.47;16.87;;;4.70;73.10;;;;;;5013987;28;20026;-71
2020/12/11 00:20:06;;;;;;;26.83;17.30;;;4.70;73.10;;;;;;4999945;28;20030;-71
2020/12/11 00:22:32;;;;;;;27.90;17.90;;;4.70;73.10;;;;;;5013140;28;20033;-71
2020/12/11 00:24:57;;;;;;;25.00;15.80;;;4.70;73.20;;;;;;5028578;28;20040;-71
2020/12/11 00:27:23;;;;;;;25.97;15.93;;;4.70;73.30;;;;;;5022737;28;20060;-71
2020/12/11 00:29:49;;;;;;;26.53;16.20;;;4.70;73.30;;;;;;5026211;28;20030;-71
2020/12/11 00:32:14;;;;;;;24.03;14.80;;;4.70;73.10;;;;;;5028358;28;20037;-71
2020/12/11 00:34:40;;;;;;;22.57;13.90;;;4.80;73.00;;;;;;5011062;28;20034;-71
2020/12/11 00:37:06;;;;;;;25.27;16.50;;;4.80;72.80;;;;;;5023956;28;20168;-71
2020/12/11 00:39:32;;;;;;;26.33;16.80;;;4.80;72.80;;;;;;5025815;28;20041;-71
2020/12/11 00:41:58;;;;;;;23.73;14.63;;;4.80;72.90;;;;;;5025650;28;20065;-71
2020/12/11 00:44:24;;;;;;;24.80;15.40;;;4.80;73.00;;;;;;5013626;28;20052;-71
2020/12/11 00:46:50;;;;;;;26.10;16.63;;;4.80;72.80;;;;;;5037789;28;20163;-71
2020/12/11 00:49:15;;;;;;;27.47;14.90;;;4.80;72.60;;;;;;5024932;28;20154;-70
2020/12/11 00:51:41;;;;;;;27.70;16.90;;;4.80;72.40;;;;;;5028810;28;20036;-71
2020/12/11 00:54:07;;;;;;;27.77;16.33;;;4.80;72.40;;;;;;5009052;28;20038;-70
2020/12/11 00:56:32;;;;;;;24.87;15.07;;;4.70;72.50;;;;;;5002093;28;20219;-71
2020/12/11 00:58:58;;;;;;;23.80;15.63;;;4.80;72.50;;;;;;5023958;28;20442;-71
2020/12/11 01:01:24;;;;;;;25.17;15.37;;;4.80;72.40;;;;;;5027384;28;20040;-71
2020/12/11 01:03:49;;;;;;;27.97;15.67;;;4.80;72.40;;;;;;5026059;28;20476;-71
2020/12/11 01:06:15;;;;;;;28.50;16.60;;;4.70;72.20;;;;;;5009545;28;20053;-71
2020/12/11 01:08:40;;;;;;;27.17;16.43;;;4.70;72.30;;;;;;5002142;28;20042;-70
2020/12/11 01:11:06;;;;;;;27.80;16.53;;;4.70;72.40;;;;;;5021956;28;20120;-71
2020/12/11 01:13:32;;;;;;;29.33;18.00;;;4.70;72.40;;;;;;5024230;28;20112;-71
2020/12/11 01:15:58;;;;;;;27.67;16.13;;;4.70;72.50;;;;;;5023549;28;20037;-71
2020/12/11 01:18:23;;;;;;;25.60;15.77;;;4.70;72.50;;;;;;5026803;28;20457;-70
2020/12/11 01:20:49;;;;;;;27.93;16.07;;;4.80;72.40;;;;;;5002940;28;20029;-71
2020/12/11 01:23:15;;;;;;;27.53;16.90;;;4.80;72.40;;;;;;5022199;28;20140;-72
2020/12/11 01:25:41;;;;;;;30.40;15.77;;;4.80;72.30;;;;;;5019336;28;20040;-71
2020/12/11 01:28:07;;;;;;;26.90;14.97;;;4.80;72.30;;;;;;4993990;28;621277;-71
2020/12/11 01:30:32;;;;;;;27.50;16.00;;;4.80;72.00;;;;;;5016043;28;20064;-71
2020/12/11 01:33:01;;;;;;;29.83;18.33;;;4.80;72.00;;;;;;5020547;28;20187;-71
2020/12/11 01:35:26;;;;;;;27.97;17.17;;;4.80;72.30;;;;;;5008469;28;20038;-74
2020/12/11 01:37:52;;;;;;;29.40;16.27;;;4.80;72.40;;;;;;5018830;28;20504;-71
2020/12/11 01:40:17;;;;;;;27.40;16.57;;;4.80;72.40;;;;;;5021323;28;20037;-71
2020/12/11 01:42:43;;;;;;;26.97;15.80;;;4.80;72.40;;;;;;5028656;28;20025;-71
2020/12/11 01:45:09;;;;;;;28.90;17.10;;;4.80;72.40;;;;;;5025147;28;20029;-71
2020/12/11 01:47:44;;;;;;;26.60;16.10;;;4.80;72.20;;;;;;5016982;28;20046;-71
2020/12/11 01:50:18;;;;;;;26.03;16.27;;;4.90;72.30;;;;;;5024076;28;20057;-70
2020/12/11 01:52:46;;;;;;;25.53;16.50;;;4.90;72.10;;;;;;5023834;28;20095;-71
2020/12/11 01:55:11;;;;;;;27.80;18.27;;;4.90;72.20;;;;;;5022315;28;20030;-71
2020/12/11 01:57:59;;;;;;;28.17;18.30;;;4.90;72.30;;;;;;5025933;28;20041;-71
2020/12/11 02:00:25;;;;;;;25.63;15.97;;;4.90;72.00;;;;;;5018914;28;20049;-71
2020/12/11 02:03:04;;;;;;;27.43;15.90;;;4.90;72.10;;;;;;5001862;28;20076;-71
2020/12/11 02:05:30;;;;;;;26.00;15.53;;;4.90;72.10;;;;;;5031790;28;20029;-71
2020/12/11 02:07:59;;;;;;;26.30;15.63;;;4.90;71.90;;;;;;5033828;28;20179;-71
2020/12/11 02:10:25;;;;;;;26.63;16.63;;;4.90;72.00;;;;;;5031064;28;20052;-71
2020/12/11 02:12:51;;;;;;;28.07;17.17;;;4.90;71.90;;;;;;5017345;28;20037;-70
2020/12/11 02:15:17;;;;;;;29.27;17.77;;;4.90;72.00;;;;;;5019045;28;20384;-71
2020/12/11 02:17:43;;;;;;;30.73;17.53;;;4.80;72.10;;;;;;5019157;28;20037;-71
2020/12/11 02:20:08;;;;;;;26.53;16.00;;;4.80;72.00;;;;;;5014188;28;20045;-71
2020/12/11 02:22:34;;;;;;;28.20;17.30;;;4.80;72.30;;;;;;5027443;28;20125;-74
2020/12/11 02:25:00;;;;;;;28.67;16.07;;;4.80;72.40;;;;;;5029627;28;20045;-72
2020/12/11 02:27:25;;;;;;;25.57;16.57;;;4.80;72.40;;;;;;5030125;28;20495;-70
2020/12/11 02:29:51;;;;;;;27.93;16.00;;;4.80;72.40;;;;;;5026703;28;20041;-70
2020/12/11 02:32:17;;;;;;;29.77;16.00;;;4.80;72.40;;;;;;5018201;28;20035;-71
2020/12/11 02:34:43;;;;;;;25.27;16.03;;;4.80;72.40;;;;;;5016412;28;20069;-71
2020/12/11 02:37:12;;;;;;;26.03;16.07;;;4.80;72.30;;;;;;5013038;28;20041;-70
2020/12/11 02:39:38;;;;;;;26.67;14.97;;;4.80;72.40;;;;;;5015217;28;20101;-71
2020/12/11 02:42:05;;;;;;;28.03;17.50;;;4.80;72.50;;;;;;4994246;28;20070;-70
2020/12/11 02:44:31;;;;;;;26.40;17.13;;;4.70;72.40;;;;;;5017071;28;20079;-70
2020/12/11 02:46:56;;;;;;;32.03;17.30;;;4.80;72.50;;;;;;5014284;28;20116;-71
2020/12/11 02:49:22;;;;;;;30.77;18.93;;;4.70;72.60;;;;;;5014012;28;20480;-71
2020/12/11 02:51:48;;;;;;;28.27;16.83;;;4.70;72.70;;;;;;5013928;28;20037;-70
2020/12/11 02:54:13;;;;;;;27.33;15.70;;;4.60;72.70;;;;;;5028522;28;20037;-71
2020/12/11 02:56:39;;;;;;;30.17;16.60;;;4.60;72.80;;;;;;5023433;28;20045;-71
2020/12/11 02:59:05;;;;;;;29.47;15.83;;;4.60;72.90;;;;;;5012225;28;20040;-71
2020/12/11 03:01:31;;;;;;;28.10;15.63;;;4.60;72.80;;;;;;5020455;28;20109;-70
2020/12/11 03:03:58;;;;;;;29.50;17.73;;;4.60;72.80;;;;;;5013292;28;20068;-71
2020/12/11 03:06:29;;;;;;;29.47;16.73;;;4.60;72.90;;;;;;4998202;28;20047;-70
2020/12/11 03:08:55;;;;;;;31.37;18.87;;;4.60;72.80;;;;;;5030900;28;20036;-70
2020/12/11 03:11:21;;;;;;;29.93;17.20;;;4.60;72.90;;;;;;5014210;28;20029;-71
2020/12/11 03:13:46;;;;;;;29.23;16.50;;;4.60;72.80;;;;;;5004277;28;20042;-71
2020/12/11 03:16:12;;;;;;;30.07;19.20;;;4.70;72.80;;;;;;5015732;28;20371;-70
2020/12/11 03:18:38;;;;;;;30.37;17.80;;;4.70;72.80;;;;;;5012493;28;20029;-71
2020/12/11 03:21:04;;;;;;;28.23;17.53;;;4.70;72.70;;;;;;5026788;28;20111;-71
2020/12/11 03:23:30;;;;;;;30.90;18.20;;;4.70;72.70;;;;;;5020058;28;20032;-70
2020/12/11 03:25:56;;;;;;;27.03;16.10;;;4.70;72.70;;;;;;4995053;28;20486;-71
2020/12/11 03:28:21;;;;;;;29.77;16.73;;;4.70;72.60;;;;;;5015685;28;20061;-70
2020/12/11 03:30:47;;;;;;;30.17;16.90;;;4.80;72.50;;;;;;4990971;28;20029;-72
2020/12/11 03:33:13;;;;;;;28.63;16.03;;;4.80;72.50;;;;;;4994985;28;20036;-70
2020/12/11 03:35:38;;;;;;;32.93;17.57;;;4.80;73.10;;;;;;5011296;28;20511;-71
2020/12/11 03:38:04;;;;;;;30.97;17.03;;;4.80;72.40;;;;;;5013563;28;20030;-70
2020/12/11 03:40:30;;;;;;;32.33;18.00;;;4.80;72.40;;;;;;5000072;28;20045;-70
2020/12/11 03:42:55;;;;;;;28.37;16.03;;;4.70;72.50;;;;;;5011972;28;20030;-71
2020/12/11 03:45:21;;;;;;;26.07;15.53;;;4.70;72.50;;;;;;5019242;28;20037;-71
2020/12/11 03:47:47;;;;;;;27.93;17.40;;;4.70;72.50;;;;;;5024841;28;20054;-71
2020/12/11 03:50:12;;;;;;;33.33;18.47;;;4.70;72.50;;;;;;5037402;28;20125;-71
2020/12/11 03:52:38;;;;;;;27.63;16.17;;;4.70;72.50;;;;;;5014397;28;20072;-74
2020/12/11 03:55:04;;;;;;;31.50;18.50;;;4.60;72.70;;;;;;5029122;28;20045;-70
2020/12/11 03:57:30;;;;;;;29.83;16.93;;;4.60;72.80;;;;;;5031543;28;20056;-70
2020/12/11 03:59:55;;;;;;;30.27;17.77;;;4.60;73.00;;;;;;5023238;28;20033;-71
2020/12/11 04:02:21;;;;;;;26.63;16.90;;;4.60;73.10;;;;;;5012587;28;20041;-71
2020/12/11 04:04:47;;;;;;;29.57;17.00;;;4.50;73.10;;;;;;5010263;28;20457;-72
2020/12/11 04:07:12;;;;;;;27.83;16.83;;;4.50;73.10;;;;;;5010258;28;20046;-70
2020/12/11 04:09:38;;;;;;;29.77;17.87;;;4.50;73.20;;;;;;5017601;28;20026;-72
2020/12/11 04:12:04;;;;;;;29.93;17.30;;;4.50;73.20;;;;;;5012703;28;20380;-71
2020/12/11 04:14:30;;;;;;;28.27;17.53;;;4.50;73.30;;;;;;5012455;28;20037;-71
2020/12/11 04:16:56;;;;;;;30.67;17.80;;;4.40;73.30;;;;;;5010055;28;20391;-72
2020/12/11 04:19:21;;;;;;;30.90;17.70;;;4.40;73.30;;;;;;5024729;28;20614;-71
2020/12/11 04:21:50;;;;;;;28.70;16.50;;;4.40;73.30;;;;;;5018808;28;20403;-71
2020/12/11 04:24:17;;;;;;;26.20;15.47;;;4.40;73.40;;;;;;5018100;28;20511;-71
2020/12/11 04:26:43;;;;;;;28.70;17.13;;;4.50;73.40;;;;;;5009134;28;20042;-68
2020/12/11 04:29:09;;;;;;;30.70;19.20;;;4.50;73.30;;;;;;5011714;28;20467;-68
2020/12/11 04:31:34;;;;;;;29.80;16.83;;;4.50;73.40;;;;;;5009753;28;20034;-69
2020/12/11 04:34:00;;;;;;;29.97;17.20;;;4.40;73.40;;;;;;5000340;28;20144;-69
2020/12/11 04:36:26;;;;;;;35.27;18.70;;;4.50;73.50;;;;;;5024413;28;20116;-69
2020/12/11 04:38:51;;;;;;;28.67;16.80;;;4.40;73.60;;;;;;5027197;28;20026;-69
2020/12/11 04:41:18;;;;;;;29.57;16.77;;;4.40;73.80;;;;;;5020690;28;20087;-69
2020/12/11 04:43:45;;;;;;;30.03;18.13;;;4.40;73.80;;;;;;5021388;28;20410;-69
2020/12/11 04:46:11;;;;;;;29.33;17.37;;;4.40;73.80;;;;;;5003892;28;20048;-69
2020/12/11 04:48:37;;;;;;;30.93;17.27;;;4.40;73.80;;;;;;5006467;28;20041;-68
2020/12/11 04:51:03;;;;;;;31.30;18.50;;;4.50;73.80;;;;;;5028712;28;20029;-70
2020/12/11 04:53:33;;;;;;;27.60;17.97;;;4.50;73.80;;;;;;5013863;28;20431;-69
2020/12/11 04:56:02;;;;;;;30.23;17.67;;;4.50;73.80;;;;;;5010689;28;20160;-69
2020/12/11 04:58:31;;;;;;;30.63;17.03;;;4.50;73.60;;;;;;5009849;28;20436;-69
2020/12/11 05:01:02;;;;;;;31.87;18.33;;;4.60;73.50;;;;;;5009217;28;20041;-69
2020/12/11 05:03:30;;;;;;;27.53;16.27;;;4.50;73.50;;;;;;5012137;28;20092;-69
2020/12/11 05:05:56;;;;;;;29.60;18.67;;;4.50;73.60;;;;;;5011351;28;20029;-69
2020/12/11 05:08:22;;;;;;;28.57;17.13;;;4.60;73.50;;;;;;5010643;28;20060;-68
2020/12/11 05:10:48;;;;;;;29.23;19.17;;;4.60;73.40;;;;;;5011392;28;20026;-69
2020/12/11 05:13:26;;;;;;;29.77;18.07;;;4.50;73.50;;;;;;5010158;28;20065;-69
2020/12/11 05:16:16;;;;;;;27.77;17.67;;;4.60;73.60;;;;;;5010684;28;20052;-69
2020/12/11 05:18:41;;;;;;;31.30;18.20;;;4.40;73.70;;;;;;5026907;28;20091;-69
2020/12/11 05:21:14;;;;;;;31.17;17.73;;;4.50;74.00;;;;;;5026926;28;20403;-71
2020/12/11 05:23:57;;;;;;;29.00;17.55;;;4.50;73.90;;;;;;5030176;28;20052;-69
2020/12/11 05:26:22;;;;;;;28.10;16.97;;;4.50;73.90;;;;;;5029999;28;20040;-69
2020/12/11 05:28:49;;;;;;;28.20;17.20;;;4.50;73.80;;;;;;5020945;28;20053;-69
2020/12/11 05:31:15;;;;;;;29.60;17.23;;;4.50;73.70;;;;;;5010154;28;20479;-69
2020/12/11 05:34:00;;;;;;;29.03;17.57;;;4.50;73.70;;;;;;5011041;28;20109;-69
2020/12/11 05:36:26;;;;;;;31.37;19.67;;;4.50;73.60;;;;;;5020767;28;20049;-68
2020/12/11 05:38:52;;;;;;;28.87;17.53;;;4.50;73.70;;;;;;5011321;28;20026;-68
2020/12/11 05:41:34;;;;;;;27.63;16.57;;;4.60;73.60;;;;;;5015811;28;20555;-68
2020/12/11 05:44:00;;;;;;;29.07;16.40;;;4.60;74.20;;;;;;5010762;28;20044;-69
2020/12/11 05:46:32;;;;;;;26.70;15.77;;;4.70;73.60;;;;;;5009428;28;20499;-69
2020/12/11 05:48:58;;;;;;;28.50;17.27;;;4.80;73.40;;;;;;5009220;28;20099;-69
2020/12/11 05:51:25;;;;;;;29.60;16.43;;;4.80;73.20;;;;;;5025994;28;20029;-69
2020/12/11 05:53:53;;;;;;;25.53;16.30;;;4.80;73.20;;;;;;5028106;28;20424;-69
2020/12/11 05:56:20;;;;;;;31.30;18.73;;;4.90;72.90;;;;;;5014920;28;20042;-70
2020/12/11 05:58:51;;;;;;;27.93;17.37;;;4.90;73.00;;;;;;4992550;28;20476;-73
2020/12/11 06:01:18;;;;;;;27.27;16.27;;;4.90;72.90;;;;;;5025472;28;20052;-70
2020/12/11 06:03:46;;;;;;;27.23;16.53;;;4.90;72.80;;;;;;5012531;28;20048;-69
2020/12/11 06:06:16;;;;;;;28.57;17.73;;;5.00;72.70;;;;;;5028533;28;20468;-70
2020/12/11 06:08:45;;;;;;;27.93;16.30;;;5.00;72.60;;;;;;5030182;28;20372;-71
2020/12/11 06:11:21;;;;;;;28.87;16.37;;;4.90;72.60;;;;;;5027100;28;20037;-70
2020/12/11 06:13:55;;;;;;;27.50;17.27;;;5.00;72.60;;;;;;5029913;28;20067;-73
2020/12/11 06:16:22;;;;;;;29.13;17.93;;;5.10;72.40;;;;;;5028974;28;20029;-70
2020/12/11 06:19:00;;;;;;;26.77;15.57;;;5.10;72.40;;;;;;5001161;28;20336;-69
2020/12/11 06:21:27;;;;;;;30.03;16.43;;;5.10;72.30;;;;;;5010534;28;20052;-70
2020/12/11 06:23:53;;;;;;;25.50;16.87;;;5.10;71.90;;;;;;5016705;28;20093;-69
2020/12/11 06:26:20;;;;;;;25.80;16.67;;;5.00;72.20;;;;;;5018053;28;20045;-70
2020/12/11 06:28:51;;;;;;;26.23;15.60;;;5.10;72.20;;;;;;5029312;28;20046;-69
2020/12/11 06:31:23;;;;;;;27.73;15.87;;;5.10;72.20;;;;;;5029788;28;20053;-70
2020/12/11 06:33:54;;;;;;;26.90;16.23;;;5.20;72.30;;;;;;5028613;28;20038;-71
2020/12/11 06:36:20;;;;;;;27.83;15.30;;;5.20;71.80;;;;;;5013289;28;20084;-70
2020/12/11 06:38:50;;;;;;;25.47;16.03;;;5.20;71.80;;;;;;5022724;28;20079;-69
2020/12/11 06:41:28;;;;;;;25.37;15.73;;;5.20;71.50;;;;;;5017405;28;20038;-69
2020/12/11 06:43:55;;;;;;;25.53;15.50;;;5.20;71.90;;;;;;5011520;28;20025;-70
2020/12/11 06:46:23;;;;;;;27.43;15.53;;;5.20;71.90;;;;;;4998367;28;20404;-70
2020/12/11 06:49:06;;;;;;;29.20;17.17;;;5.20;71.90;;;;;;5012796;28;21777;-70
2020/12/11 06:51:33;;;;;;;27.75;17.13;;;5.20;71.60;;;;;;5019719;28;20025;-69
2020/12/11 06:54:00;;;;;;;29.00;16.70;;;5.30;71.70;;;;;;5020920;28;20099;-69
2020/12/11 06:56:47;;;;;;;23.67;14.57;;;5.30;71.70;;;;;;5023639;28;20034;-70
2020/12/11 06:59:31;;;;;;;25.10;14.57;;;5.30;71.60;;;;;;5022599;28;20030;-69
2020/12/11 07:02:08;;;;;;;26.03;16.37;;;5.30;71.40;;;;;;5019846;28;20041;-70
2020/12/11 07:04:52;;;;;;;24.03;15.13;;;5.30;71.60;;;;;;5029077;28;20479;-70
2020/12/11 07:07:19;;;;;;;24.92;15.27;;;5.40;71.40;;;;;;5013114;28;20061;-70
2020/12/11 07:09:47;;;;;;;25.57;16.20;;;5.40;71.00;;;;;;5011505;28;20076;-71
2020/12/11 07:12:16;;;;;;;24.83;14.93;;;5.40;71.20;;;;;;5019929;28;20459;-70
2020/12/11 07:14:46;;;;;;;25.20;14.77;;;5.40;71.20;;;;;;5009930;28;20046;-71
2020/12/11 07:17:24;;;;;;;23.73;14.67;;;5.50;71.00;;;;;;5007741;28;20034;-70
2020/12/11 07:19:50;;;;;;;27.03;17.20;;;5.50;71.00;;;;;;5017398;28;20029;-69
2020/12/11 07:22:18;;;;;;;27.40;16.53;;;5.50;70.90;;;;;;5014564;28;20034;-70
2020/12/11 07:24:44;;;;;;;23.37;15.03;;;5.40;71.00;;;;;;5022612;28;20102;-70
2020/12/11 07:27:10;;;;;;;22.03;13.23;;;5.40;71.10;;;;;;5020167;28;20040;-70
2020/12/11 07:29:36;;;;;;;26.57;17.03;;;5.50;70.90;;;;;;5018397;28;20037;-70
2020/12/11 07:32:01;;;;;;;26.97;16.27;;;5.50;70.90;;;;;;5024220;28;20543;-70
2020/12/11 07:34:33;;;;;;;25.67;14.47;;;5.50;70.90;;;;;;5008296;28;20038;-70
2020/12/11 07:36:59;;;;;;;25.17;15.07;;;5.50;70.90;;;;;;5022388;28;20072;-70
2020/12/11 07:39:31;;;;;;;28.20;16.63;;;5.60;70.80;;;;;;5017431;28;20053;-70
2020/12/11 07:42:03;;;;;;;26.67;16.27;;;5.60;70.70;;;;;;5028686;28;20109;-71
2020/12/11 07:44:29;;;;;;;25.93;14.87;;;5.60;70.80;;;;;;5015759;28;20024;-70
2020/12/11 07:47:06;;;;;;;26.27;15.03;;;5.60;70.70;;;;;;5018359;28;20064;-70
2020/12/11 07:49:35;;;;;;;24.07;15.50;;;5.60;70.50;;;;;;5013485;28;20095;-71
2020/12/11 07:52:01;;;;;;;25.70;17.03;;;5.60;70.50;;;;;;5029267;28;20025;-71
2020/12/11 07:54:37;;;;;;;24.17;14.93;;;5.60;70.50;;;;;;5019353;28;20144;-70
2020/12/11 07:57:13;;;;;;;23.33;14.37;;;5.60;70.60;;;;;;5025892;28;20041;-70
2020/12/11 07:59:56;;;;;;;24.47;13.27;;;5.60;70.50;;;;;;5015013;28;20443;-70
2020/12/11 08:02:23;;;;;;;25.37;14.90;;;5.70;70.40;;;;;;5024588;28;20456;-70
2020/12/11 08:04:49;;;;;;;25.33;15.87;;;5.70;70.20;;;;;;5012675;28;20026;-70
2020/12/11 08:07:25;;;;;;;23.27;14.60;;;5.70;70.20;;;;;;5006283;28;20900;-70
2020/12/11 08:09:51;;;;;;;22.80;13.30;;;5.70;70.10;;;;;;5011198;28;20041;-70
2020/12/11 08:12:16;;;;;;;23.63;13.97;;;5.70;70.10;;;;;;5009653;28;20360;-73
2020/12/11 08:14:46;;;;;;;22.33;13.83;;;5.70;70.20;;;;;;5011690;28;20026;-70
2020/12/11 08:17:13;;;;;;;25.87;15.27;;;5.80;70.10;;;;;;5011998;28;20064;-70
2020/12/11 08:19:39;;;;;;;23.40;15.03;;;5.70;70.20;;;;;;5011238;28;20073;-71
2020/12/11 08:22:16;;;;;;;23.97;14.97;;;5.80;70.00;;;;;;5019377;28;20029;-71
2020/12/11 08:24:42;;;;;;;22.43;13.43;;;5.80;70.00;;;;;;5018095;28;20021;-69
2020/12/11 08:27:20;;;;;;;23.17;14.20;;;5.80;70.00;;;;;;5023381;28;20037;-69
2020/12/11 08:29:59;;;;;;;24.23;13.77;;;5.90;70.00;;;;;;5025583;28;20085;-70
2020/12/11 08:32:26;;;;;;;25.00;14.53;;;5.90;69.50;;;;;;5030554;28;20033;-71
2020/12/11 08:34:52;;;;;;;24.53;14.93;;;5.80;69.60;;;;;;5024123;28;20021;-70
2020/12/11 08:37:17;;;;;;;23.63;14.90;;;5.80;69.80;;;;;;5013244;28;20490;-70
2020/12/11 08:39:43;;;;;;;26.47;17.80;;;5.80;69.70;;;;;;4991473;28;20065;-70
2020/12/11 08:42:29;;;;;;;25.53;16.23;;;5.80;69.80;;;;;;5026319;28;20033;-71
2020/12/11 08:50:09;;;;;;;24.20;13.77;;;5.80;69.80;;;;;;5025610;28;20416;-69
2020/12/11 08:52:35;;;;;;;20.57;13.60;;;5.80;69.70;;;;;;5023546;28;20076;-69
2020/12/11 08:55:00;;;;;;;23.67;14.27;;;5.80;69.60;;;;;;5019349;28;20391;-72
2020/12/11 08:57:31;;;;;;;23.47;14.63;;;5.80;69.80;;;;;;5012378;28;20181;-69
2020/12/11 08:59:57;;;;;;;23.97;15.33;;;5.90;69.80;;;;;;5025519;28;20289;-73
2020/12/11 09:02:23;;;;;;;22.80;13.13;;;5.90;69.90;;;;;;4991233;28;20506;-69
2020/12/11 09:04:48;;;;;;;22.83;14.97;;;5.90;69.70;;;;;;4999539;28;20026;-69
2020/12/11 09:07:14;;;;;;;24.90;15.53;;;6.00;69.70;;;;;;5023964;28;20187;-70
2020/12/11 09:09:39;;;;;;;23.80;13.60;;;6.00;69.50;;;;;;5023012;28;20593;-70
2020/12/11 09:12:05;;;;;;;25.87;16.57;;;6.00;69.30;;;;;;5027280;28;20108;-71
2020/12/11 09:14:31;;;;;;;22.60;13.43;;;6.00;69.90;;;;;;5021797;28;20108;-70
2020/12/11 09:16:57;;;;;;;22.80;13.00;;;5.90;70.20;;;;;;5039516;28;20041;-70
2020/12/11 09:19:22;;;;;;;23.40;13.47;;;6.00;70.40;;;;;;5019619;28;20061;-71
2020/12/11 09:21:48;;;;;;;25.13;15.90;;;6.00;70.80;;;;;;5008858;28;20025;-71
2020/12/11 09:24:14;;;;;;;24.13;15.07;;;5.90;71.70;;;;;;5026864;28;20531;-70
2020/12/11 09:26:40;;;;;;;26.30;15.60;;;5.90;72.10;;;;;;5015977;28;20034;-70
2020/12/11 09:29:12;;;;;;;26.00;16.60;;;5.90;72.20;;;;;;5016685;28;20061;-71
2020/12/11 09:31:41;;;;;;;23.13;14.20;;;6.00;72.30;;;;;;5018015;28;20458;-71
2020/12/11 09:34:06;;;;;;;26.30;16.93;;;6.00;72.80;;;;;;5027471;28;20044;-71
2020/12/11 09:36:32;;;;;;;30.13;17.80;;;6.00;72.90;;;;;;5022743;28;20037;-71
2020/12/11 09:38:58;;;;;;;30.40;17.47;;;6.00;73.10;;;;;;5013968;28;20044;-73
2020/12/11 09:41:29;;;;;;;24.93;16.50;;;6.00;73.30;;;;;;5017739;28;20029;-71
2020/12/11 09:46:45;;;;;;;28.90;17.37;;;6.00;73.50;;;;;;5021543;28;20490;-71
2020/12/11 09:49:15;;;;;;;23.07;15.13;;;6.00;73.40;;;;;;5019896;28;20032;-71
2020/12/11 09:54:25;;;;;;;25.53;15.43;;;6.00;73.50;;;;;;5028966;28;20041;-70
2020/12/11 09:56:50;;;;;;;23.33;14.37;;;6.10;73.50;;;;;;5024352;28;20056;-71
2020/12/11 09:59:24;;;;;;;24.57;14.93;;;6.10;73.50;;;;;;5023796;28;20041;-71
2020/12/11 10:01:59;;;;;;;22.13;13.13;;;6.30;73.50;;;;;;5020502;28;20078;-71
2020/12/11 10:04:24;;;;;;;22.87;13.90;;;6.30;73.10;;;;;;5027419;28;20030;-69
2020/12/11 10:06:50;;;;;;;24.93;15.27;;;6.30;72.80;;;;;;5008876;28;20045;-69
2020/12/11 10:09:16;;;;;;;26.03;16.50;;;6.40;72.90;;;;;;5023870;28;20429;-69
2020/12/11 10:11:41;;;;;;;23.13;15.17;;;6.40;72.70;;;;;;5026237;28;20142;-69
2020/12/11 10:14:57;;;;;;;22.47;14.03;;;6.40;72.60;;;;;;5023937;28;20052;-69
2020/12/11 10:16:54;;;;;;;23.23;15.37;;;6.30;72.70;;;;;;5009194;28;20033;-70
2020/12/11 10:19:20;;;;;;;23.90;14.63;;;6.30;72.90;;;;;;5017567;28;20029;-69
2020/12/11 10:21:48;;;;;;;22.47;13.87;;;6.20;73.20;;;;;;5014536;28;20034;-70
2020/12/11 10:24:14;;;;;;;23.37;14.93;;;6.30;73.30;;;;;;5021172;28;20079;-69
2020/12/11 10:26:40;;;;;;;22.47;15.27;;;6.40;73.20;;;;;;5019778;28;20038;-68
2020/12/11 10:29:06;;;;;;;24.43;14.53;;;6.40;73.10;;;;;;5021148;28;20128;-69
2020/12/11 10:31:32;;;;;;;24.73;14.87;;;6.40;72.90;;;;;;5024886;28;20430;-69
2020/12/11 10:33:58;;;;;;;23.33;15.63;;;6.40;73.10;;;;;;5019983;28;20029;-69
2020/12/11 10:36:33;;;;;;;22.73;14.73;;;6.50;72.90;;;;;;5021279;28;20033;-68
2020/12/11 10:38:59;;;;;;;22.10;13.87;;;6.50;72.90;;;;;;5023358;28;20060;-69
2020/12/11 10:41:27;;;;;;;24.57;15.73;;;6.50;72.80;;;;;;5023337;28;20058;-69
2020/12/11 10:43:53;;;;;;;23.97;15.30;;;6.60;72.70;;;;;;5020844;28;20025;-69
2020/12/11 10:46:19;;;;;;;25.57;16.00;;;6.60;72.70;;;;;;5015580;28;20443;-69
2020/12/11 10:48:44;;;;;;;23.43;14.63;;;6.70;72.60;;;;;;5009086;28;20099;-69
2020/12/11 10:51:12;;;;;;;23.57;14.53;;;6.70;72.60;;;;;;5006763;28;20045;-69
2020/12/11 10:53:38;;;;;;;25.10;15.50;;;6.60;72.80;;;;;;5025045;28;20040;-69
2020/12/11 10:56:08;;;;;;;26.13;15.20;;;6.60;73.10;;;;;;5027704;28;20029;-70
2020/12/11 10:58:33;;;;;;;24.77;14.40;;;6.60;73.60;;;;;;5024521;28;20033;-69
2020/12/11 11:01:02;;;;;;;24.77;14.63;;;6.60;73.90;;;;;;5002490;28;20040;-70
2020/12/11 11:03:28;;;;;;;26.13;16.77;;;6.60;74.20;;;;;;5014077;28;20032;-69
2020/12/11 11:06:02;;;;;;;26.47;16.07;;;6.60;74.50;;;;;;5001842;28;20136;-68
2020/12/11 11:08:35;;;;;;;25.90;15.77;;;6.60;74.80;;;;;;5023992;28;20047;-69
2020/12/11 11:11:01;;;;;;;25.93;16.03;;;6.70;75.00;;;;;;5022151;28;20080;-69
2020/12/11 11:15:54;;;;;;;25.20;17.00;;;6.70;75.00;;;;;;5019260;28;20065;-71
2020/12/11 11:18:32;;;;;;;24.73;16.57;;;6.60;75.30;;;;;;5004532;28;20060;-71
2020/12/11 11:26:17;;;;;;;26.53;16.77;;;6.60;75.80;;;;;;5010921;28;20037;-71
2020/12/11 11:28:43;;;;;;;25.73;15.77;;;6.60;76.10;;;;;;5001563;28;20440;-72
2020/12/11 11:31:11;;;;;;;26.93;16.60;;;6.60;76.30;;;;;;5022744;28;20052;-71
2020/12/11 11:33:36;;;;;;;27.17;15.93;;;6.70;76.70;;;;;;5026012;28;20052;-71
2020/12/11 11:36:02;;;;;;;25.03;15.97;;;6.70;76.50;;;;;;5021507;28;20456;-71
2020/12/11 11:38:28;;;;;;;25.60;15.50;;;6.80;76.40;;;;;;5019121;28;20026;-71
2020/12/11 11:40:54;;;;;;;24.83;15.80;;;6.70;76.20;;;;;;4989815;28;20494;-71
2020/12/11 11:43:44;;;;;;;24.77;16.67;;;6.80;76.00;;;;;;4993936;28;20428;-72
2020/12/11 11:46:10;;;;;;;26.43;17.17;;;6.80;75.90;;;;;;5021434;28;20021;-72
2020/12/11 11:48:40;;;;;;;36.70;21.13;;;6.90;76.00;;;;;;5021465;28;20296;-72
2020/12/11 11:51:11;;;;;;;23.97;15.80;;;6.90;75.80;;;;;;4994587;28;20141;-73
2020/12/11 11:53:36;;;;;;;22.87;15.23;;;6.90;75.90;;;;;;5026112;28;20033;-69
2020/12/11 11:56:02;;;;;;;25.47;16.80;;;6.90;75.90;;;;;;5012568;28;20042;-71
2020/12/11 11:58:28;;;;;;;24.87;16.07;;;6.90;76.00;;;;;;5011903;28;20415;-71
2020/12/11 12:00:53;;;;;;;24.53;15.67;;;6.80;76.40;;;;;;5030816;28;20038;-72
2020/12/11 12:03:24;;;;;;;22.33;14.77;;;6.80;76.60;;;;;;4993049;28;20030;-71
2020/12/11 12:05:52;;;;;;;27.47;15.20;;;6.90;76.70;;;;;;5005915;28;20574;-71
2020/12/11 12:08:20;;;;;;;27.10;16.50;;;6.90;76.90;;;;;;4998131;28;20087;-71
2020/12/11 12:10:47;;;;;;;26.93;15.87;;;6.90;77.10;;;;;;5014547;28;20128;-71
2020/12/11 12:13:13;;;;;;;24.17;15.13;;;6.90;77.10;;;;;;5020576;28;20428;-71
2020/12/11 12:15:38;;;;;;;24.53;15.87;;;6.90;77.10;;;;;;5014525;28;20134;-72
2020/12/11 12:18:06;;;;;;;26.50;16.47;;;6.90;77.00;;;;;;5031775;28;20064;-71
2020/12/11 12:31:11;;;;;;;23.70;14.83;;;7.00;77.00;;;;;;5016702;28;20033;-71
2020/12/11 12:44:12;;;;;;;27.03;14.50;;;7.20;77.30;;;;;;5029899;28;20036;-71
2020/12/11 12:46:44;;;;;;;31.17;18.37;;;7.10;77.40;;;;;;5021466;28;20042;-71
2020/12/11 12:49:10;;;;;;;26.47;15.70;;;7.10;77.70;;;;;;5021669;28;20108;-72
2020/12/11 12:51:35;;;;;;;25.67;16.57;;;7.10;77.80;;;;;;5029086;28;20117;-70
2020/12/11 12:54:01;;;;;;;22.33;14.70;;;7.20;77.80;;;;;;5007721;28;20109;-70
2020/12/11 12:56:34;;;;;;;25.17;15.80;;;7.10;77.70;;;;;;5012020;28;20041;-71
2020/12/11 12:59:06;;;;;;;26.50;17.52;;;7.10;77.80;;;;;;5016929;28;20029;-71
2020/12/11 13:07:09;;;;;;;31.90;19.40;;;7.10;78.10;;;;;;5011139;28;20108;-68
2020/12/11 13:09:35;;;;;;;43.90;25.93;;;7.10;78.20;;;;;;5032444;28;20442;-69
2020/12/11 13:12:02;;;;;;;25.77;16.67;;;7.10;78.30;;;;;;5038459;28;20030;-70
2020/12/11 13:14:28;;;;;;;29.60;18.53;;;7.10;78.50;;;;;;5029224;28;20142;-70
2020/12/11 13:16:54;;;;;;;27.63;17.23;;;7.10;78.50;;;;;;5009626;28;20121;-71
2020/12/11 13:19:23;;;;;;;30.43;21.63;;;7.10;78.50;;;;;;5020509;28;20112;-71
2020/12/11 13:22:22;;;;;;;22.93;14.67;;;7.20;78.60;;;;;;5018430;28;20056;-69
2020/12/11 13:27:39;;;;;;;22.40;14.37;;;7.30;78.30;;;;;;5010688;28;20068;-68